Prices Fork, Virginia
Current Conditions -  °F | °C
As of 5:15 PM on Wednesday 28 Jan 2015 (Local Time) from KBCB Reporting Station
Clear Clear  
Wind Chill: 28°   Ceiling: Unl
Heat Index: 33°   Visibility: 10mi
Dew Point: 11°   Wind: 6mph
Humidity: 40%   Direction: 250°WSW
Pressure: 30.24"   Gusts: NA
Location:  37.1278°N, 80.4251°W
Report Text: KBCB 282215Z AUTO 25005KT 10SM CLR 01/M11 A3024 RMK AO2 T00071115
Loading
Personal Weather Stations






























Interactive Weather Map New forecast layout! Learn more

10-Day Weather Forecast

Advertisements
Track Severe Weather on mobile